sensor_id;sensor_type;location;lat;lon;timestamp;P1;durP1;ratioP1;P2;durP2;ratioP2
45322;SDS011;31382;50.200;8.674;2023-06-14T00:01:52;4.30;;;2.75;;
45322;SDS011;31382;50.200;8.674;2023-06-14T00:06:54;3.67;;;3.00;;
45322;SDS011;31382;50.200;8.674;2023-06-14T00:11:57;3.15;;;2.80;;
45322;SDS011;31382;50.200;8.674;2023-06-14T00:16:59;5.28;;;2.80;;
45322;SDS011;31382;50.200;8.674;2023-06-14T00:22:00;7.47;;;3.13;;
45322;SDS011;31382;50.200;8.674;2023-06-14T00:27:03;7.60;;;3.70;;
45322;SDS011;31382;50.200;8.674;2023-06-14T00:32:04;4.57;;;2.67;;
45322;SDS011;31382;50.200;8.674;2023-06-14T00:37:06;4.97;;;2.67;;
45322;SDS011;31382;50.200;8.674;2023-06-14T00:42:07;3.95;;;2.50;;
45322;SDS011;31382;50.200;8.674;2023-06-14T00:47:09;3.35;;;2.47;;
45322;SDS011;31382;50.200;8.674;2023-06-14T00:52:10;4.55;;;2.70;;
45322;SDS011;31382;50.200;8.674;2023-06-14T00:57:13;2.45;;;2.25;;
45322;SDS011;31382;50.200;8.674;2023-06-14T01:02:15;3.03;;;2.47;;
45322;SDS011;31382;50.200;8.674;2023-06-14T01:18:04;4.35;;;2.80;;
45322;SDS011;31382;50.200;8.674;2023-06-14T01:23:05;6.07;;;2.63;;
45322;SDS011;31382;50.200;8.674;2023-06-14T01:28:07;4.80;;;2.65;;
45322;SDS011;31382;50.200;8.674;2023-06-14T01:33:12;3.25;;;1.95;;
45322;SDS011;31382;50.200;8.674;2023-06-14T01:38:17;3.95;;;2.03;;
45322;SDS011;31382;50.200;8.674;2023-06-14T01:43:20;4.07;;;2.80;;
45322;SDS011;31382;50.200;8.674;2023-06-14T01:48:22;3.75;;;2.20;;
45322;SDS011;31382;50.200;8.674;2023-06-14T01:53:24;4.07;;;2.42;;
45322;SDS011;31382;50.200;8.674;2023-06-14T01:58:26;8.95;;;2.50;;
45322;SDS011;31382;50.200;8.674;2023-06-14T02:03:27;2.90;;;2.00;;
45322;SDS011;31382;50.200;8.674;2023-06-14T02:08:29;4.53;;;2.40;;
45322;SDS011;31382;50.200;8.674;2023-06-14T02:13:31;4.22;;;2.10;;
45322;SDS011;31382;50.200;8.674;2023-06-14T02:18:32;3.33;;;2.35;;
45322;SDS011;31382;50.200;8.674;2023-06-14T02:23:34;4.22;;;2.92;;
45322;SDS011;31382;50.200;8.674;2023-06-14T02:28:36;3.90;;;2.75;;
45322;SDS011;31382;50.200;8.674;2023-06-14T02:33:37;5.65;;;2.72;;
45322;SDS011;31382;50.200;8.674;2023-06-14T02:38:39;4.10;;;2.22;;
45322;SDS011;31382;50.200;8.674;2023-06-14T02:43:40;4.40;;;2.53;;
45322;SDS011;31382;50.200;8.674;2023-06-14T02:48:42;3.75;;;2.53;;
45322;SDS011;31382;50.200;8.674;2023-06-14T02:53:43;10.20;;;3.67;;
45322;SDS011;31382;50.200;8.674;2023-06-14T02:58:45;8.32;;;2.75;;
45322;SDS011;31382;50.200;8.674;2023-06-14T03:03:47;6.72;;;2.20;;
45322;SDS011;31382;50.200;8.674;2023-06-14T03:08:49;4.72;;;2.35;;
45322;SDS011;31382;50.200;8.674;2023-06-14T03:13:50;3.13;;;2.80;;
45322;SDS011;31382;50.200;8.674;2023-06-14T03:18:52;5.63;;;2.33;;
45322;SDS011;31382;50.200;8.674;2023-06-14T03:23:54;5.85;;;2.15;;
45322;SDS011;31382;50.200;8.674;2023-06-14T03:28:56;4.97;;;2.45;;
45322;SDS011;31382;50.200;8.674;2023-06-14T03:33:58;5.78;;;2.15;;
45322;SDS011;31382;50.200;8.674;2023-06-14T03:38:59;3.20;;;1.95;;
45322;SDS011;31382;50.200;8.674;2023-06-14T03:44:01;3.22;;;2.17;;
45322;SDS011;31382;50.200;8.674;2023-06-14T03:49:03;7.97;;;1.90;;
45322;SDS011;31382;50.200;8.674;2023-06-14T03:54:05;3.40;;;1.90;;
45322;SDS011;31382;50.200;8.674;2023-06-14T03:59:27;6.13;;;2.00;;
45322;SDS011;31382;50.200;8.674;2023-06-14T04:04:28;4.07;;;1.80;;
45322;SDS011;31382;50.200;8.674;2023-06-14T04:09:30;5.80;;;2.30;;
45322;SDS011;31382;50.200;8.674;2023-06-14T04:14:32;5.00;;;2.22;;
45322;SDS011;31382;50.200;8.674;2023-06-14T04:19:34;6.70;;;2.00;;
45322;SDS011;31382;50.200;8.674;2023-06-14T04:24:35;9.60;;;2.10;;
45322;SDS011;31382;50.200;8.674;2023-06-14T04:29:37;5.57;;;2.45;;
45322;SDS011;31382;50.200;8.674;2023-06-14T04:34:40;5.28;;;2.28;;
45322;SDS011;31382;50.200;8.674;2023-06-14T04:39:42;2.15;;;1.65;;
45322;SDS011;31382;50.200;8.674;2023-06-14T04:44:43;5.40;;;2.17;;
45322;SDS011;31382;50.200;8.674;2023-06-14T04:49:46;4.20;;;1.95;;
45322;SDS011;31382;50.200;8.674;2023-06-14T04:54:47;7.85;;;1.60;;
45322;SDS011;31382;50.200;8.674;2023-06-14T04:59:49;4.80;;;1.40;;
45322;SDS011;31382;50.200;8.674;2023-06-14T05:04:56;1.48;;;1.38;;
45322;SDS011;31382;50.200;8.674;2023-06-14T05:09:58;9.77;;;2.03;;
45322;SDS011;31382;50.200;8.674;2023-06-14T05:14:59;2.97;;;1.58;;
45322;SDS011;31382;50.200;8.674;2023-06-14T05:20:01;2.85;;;1.80;;
45322;SDS011;31382;50.200;8.674;2023-06-14T05:25:02;4.35;;;1.88;;
45322;SDS011;31382;50.200;8.674;2023-06-14T05:30:04;2.15;;;1.83;;
45322;SDS011;31382;50.200;8.674;2023-06-14T05:35:06;6.78;;;2.28;;
45322;SDS011;31382;50.200;8.674;2023-06-14T05:40:08;3.95;;;1.83;;
45322;SDS011;31382;50.200;8.674;2023-06-14T05:45:10;7.15;;;2.13;;
45322;SDS011;31382;50.200;8.674;2023-06-14T05:50:11;2.90;;;1.63;;
45322;SDS011;31382;50.200;8.674;2023-06-14T05:55:13;6.10;;;1.63;;
45322;SDS011;31382;50.200;8.674;2023-06-14T06:00:15;4.25;;;1.60;;
45322;SDS011;31382;50.200;8.674;2023-06-14T06:05:17;3.97;;;1.75;;
45322;SDS011;31382;50.200;8.674;2023-06-14T06:10:19;1.85;;;1.20;;
45322;SDS011;31382;50.200;8.674;2023-06-14T06:15:20;4.40;;;1.70;;
45322;SDS011;31382;50.200;8.674;2023-06-14T06:20:22;5.55;;;1.60;;
45322;SDS011;31382;50.200;8.674;2023-06-14T06:25:30;2.72;;;1.70;;
45322;SDS011;31382;50.200;8.674;2023-06-14T06:30:32;4.30;;;1.40;;
45322;SDS011;31382;50.200;8.674;2023-06-14T06:35:34;2.03;;;1.25;;
45322;SDS011;31382;50.200;8.674;2023-06-14T06:40:35;3.95;;;1.60;;
45322;SDS011;31382;50.200;8.674;2023-06-14T06:45:37;6.07;;;1.52;;
45322;SDS011;31382;50.200;8.674;2023-06-14T06:50:39;3.95;;;1.50;;
45322;SDS011;31382;50.200;8.674;2023-06-14T06:55:40;1.60;;;1.20;;
45322;SDS011;31382;50.200;8.674;2023-06-14T07:00:41;3.75;;;1.30;;
45322;SDS011;31382;50.200;8.674;2023-06-14T07:05:43;1.55;;;0.90;;
45322;SDS011;31382;50.200;8.674;2023-06-14T07:10:44;9.50;;;1.40;;
45322;SDS011;31382;50.200;8.674;2023-06-14T07:15:46;6.78;;;1.52;;
45322;SDS011;31382;50.200;8.674;2023-06-14T07:20:48;3.95;;;1.40;;
45322;SDS011;31382;50.200;8.674;2023-06-14T07:25:49;2.80;;;0.80;;
45322;SDS011;31382;50.200;8.674;2023-06-14T07:30:51;3.88;;;1.10;;
45322;SDS011;31382;50.200;8.674;2023-06-14T07:35:52;2.55;;;1.00;;
45322;SDS011;31382;50.200;8.674;2023-06-14T07:40:54;2.47;;;1.00;;
45322;SDS011;31382;50.200;8.674;2023-06-14T07:45:55;1.67;;;0.90;;
45322;SDS011;31382;50.200;8.674;2023-06-14T07:51:08;0.95;;;0.70;;
45322;SDS011;31382;50.200;8.674;2023-06-14T07:56:09;2.42;;;0.88;;
45322;SDS011;31382;50.200;8.674;2023-06-14T08:01:11;5.03;;;0.77;;
45322;SDS011;31382;50.200;8.674;2023-06-14T08:06:14;3.60;;;0.65;;
45322;SDS011;31382;50.200;8.674;2023-06-14T08:11:16;1.20;;;0.60;;
45322;SDS011;31382;50.200;8.674;2023-06-14T08:16:17;2.60;;;0.50;;
45322;SDS011;31382;50.200;8.674;2023-06-14T08:21:19;3.80;;;0.50;;
45322;SDS011;31382;50.200;8.674;2023-06-14T08:26:20;3.60;;;0.70;;
45322;SDS011;31382;50.200;8.674;2023-06-14T08:31:23;3.20;;;0.52;;
45322;SDS011;31382;50.200;8.674;2023-06-14T08:36:26;4.85;;;0.73;;
45322;SDS011;31382;50.200;8.674;2023-06-14T08:41:28;6.45;;;0.50;;
45322;SDS011;31382;50.200;8.674;2023-06-14T08:46:31;1.00;;;0.63;;
45322;SDS011;31382;50.200;8.674;2023-06-14T08:51:35;0.90;;;0.40;;
45322;SDS011;31382;50.200;8.674;2023-06-14T08:56:38;1.65;;;0.40;;
45322;SDS011;31382;50.200;8.674;2023-06-14T09:01:42;0.80;;;0.57;;
45322;SDS011;31382;50.200;8.674;2023-06-14T09:07:04;0.93;;;0.43;;
45322;SDS011;31382;50.200;8.674;2023-06-14T09:12:08;3.55;;;0.40;;
45322;SDS011;31382;50.200;8.674;2023-06-14T09:17:12;2.63;;;0.43;;
45322;SDS011;31382;50.200;8.674;2023-06-14T09:22:16;2.58;;;0.50;;
45322;SDS011;31382;50.200;8.674;2023-06-14T09:27:17;0.88;;;0.40;;
45322;SDS011;31382;50.200;8.674;2023-06-14T09:32:20;2.03;;;0.57;;
45322;SDS011;31382;50.200;8.674;2023-06-14T09:37:32;0.90;;;0.50;;
45322;SDS011;31382;50.200;8.674;2023-06-14T09:42:34;2.60;;;0.75;;
45322;SDS011;31382;50.200;8.674;2023-06-14T09:47:36;0.77;;;0.60;;
45322;SDS011;31382;50.200;8.674;2023-06-14T09:52:39;3.10;;;0.50;;
45322;SDS011;31382;50.200;8.674;2023-06-14T09:57:45;2.20;;;0.50;;
45322;SDS011;31382;50.200;8.674;2023-06-14T10:02:49;1.63;;;0.80;;
45322;SDS011;31382;50.200;8.674;2023-06-14T10:08:03;2.75;;;0.85;;
45322;SDS011;31382;50.200;8.674;2023-06-14T10:13:07;3.95;;;1.50;;
45322;SDS011;31382;50.200;8.674;2023-06-14T10:18:28;1.45;;;0.60;;
45322;SDS011;31382;50.200;8.674;2023-06-14T10:23:31;2.75;;;0.70;;
45322;SDS011;31382;50.200;8.674;2023-06-14T10:28:38;2.33;;;0.68;;
45322;SDS011;31382;50.200;8.674;2023-06-14T10:33:47;1.77;;;1.23;;
45322;SDS011;31382;50.200;8.674;2023-06-14T10:38:58;4.50;;;0.75;;
45322;SDS011;31382;50.200;8.674;2023-06-14T10:49:17;1.77;;;1.00;;
45322;SDS011;31382;50.200;8.674;2023-06-14T10:54:22;1.42;;;0.60;;
45322;SDS011;31382;50.200;8.674;2023-06-14T10:59:24;0.80;;;0.50;;
45322;SDS011;31382;50.200;8.674;2023-06-14T11:05:00;1.05;;;0.90;;
45322;SDS011;31382;50.200;8.674;2023-06-14T11:15:33;0.98;;;0.43;;
45322;SDS011;31382;50.200;8.674;2023-06-14T11:20:36;1.52;;;0.50;;
45322;SDS011;31382;50.200;8.674;2023-06-14T11:25:37;0.98;;;0.60;;
45322;SDS011;31382;50.200;8.674;2023-06-14T11:30:39;2.60;;;0.50;;
45322;SDS011;31382;50.200;8.674;2023-06-14T11:35:40;1.70;;;0.52;;
45322;SDS011;31382;50.200;8.674;2023-06-14T11:40:42;0.45;;;0.40;;
45322;SDS011;31382;50.200;8.674;2023-06-14T11:45:47;4.45;;;0.50;;
45322;SDS011;31382;50.200;8.674;2023-06-14T11:51:07;0.50;;;0.30;;
45322;SDS011;31382;50.200;8.674;2023-06-14T11:56:08;2.10;;;0.50;;
45322;SDS011;31382;50.200;8.674;2023-06-14T12:01:14;2.35;;;0.50;;
45322;SDS011;31382;50.200;8.674;2023-06-14T12:06:25;0.60;;;0.40;;
45322;SDS011;31382;50.200;8.674;2023-06-14T12:16:37;4.90;;;0.60;;
45322;SDS011;31382;50.200;8.674;2023-06-14T12:21:41;3.78;;;1.20;;
45322;SDS011;31382;50.200;8.674;2023-06-14T12:26:43;5.32;;;1.27;;
45322;SDS011;31382;50.200;8.674;2023-06-14T12:31:45;0.95;;;0.50;;
45322;SDS011;31382;50.200;8.674;2023-06-14T12:36:46;1.10;;;0.60;;
45322;SDS011;31382;50.200;8.674;2023-06-14T12:41:48;4.20;;;0.60;;
45322;SDS011;31382;50.200;8.674;2023-06-14T12:46:49;1.17;;;0.60;;
45322;SDS011;31382;50.200;8.674;2023-06-14T12:51:52;1.95;;;0.43;;
45322;SDS011;31382;50.200;8.674;2023-06-14T12:56:53;0.50;;;0.50;;
45322;SDS011;31382;50.200;8.674;2023-06-14T13:01:56;1.08;;;0.70;;
45322;SDS011;31382;50.200;8.674;2023-06-14T13:06:57;0.65;;;0.50;;
45322;SDS011;31382;50.200;8.674;2023-06-14T13:11:59;3.58;;;0.50;;
45322;SDS011;31382;50.200;8.674;2023-06-14T13:17:00;1.40;;;0.50;;
45322;SDS011;31382;50.200;8.674;2023-06-14T13:22:02;0.60;;;0.40;;
45322;SDS011;31382;50.200;8.674;2023-06-14T13:27:04;2.92;;;0.50;;
45322;SDS011;31382;50.200;8.674;2023-06-14T13:32:06;6.40;;;1.08;;
45322;SDS011;31382;50.200;8.674;2023-06-14T13:37:09;2.97;;;0.50;;
45322;SDS011;31382;50.200;8.674;2023-06-14T13:42:10;1.25;;;0.45;;
45322;SDS011;31382;50.200;8.674;2023-06-14T13:47:12;0.95;;;0.60;;
45322;SDS011;31382;50.200;8.674;2023-06-14T13:52:14;2.28;;;0.60;;
45322;SDS011;31382;50.200;8.674;2023-06-14T13:57:15;4.45;;;1.40;;
45322;SDS011;31382;50.200;8.674;2023-06-14T14:02:17;2.58;;;0.55;;
45322;SDS011;31382;50.200;8.674;2023-06-14T14:07:19;1.23;;;0.50;;
45322;SDS011;31382;50.200;8.674;2023-06-14T14:12:21;5.15;;;0.60;;
45322;SDS011;31382;50.200;8.674;2023-06-14T14:17:23;0.80;;;0.60;;
45322;SDS011;31382;50.200;8.674;2023-06-14T14:22:24;5.63;;;0.50;;
45322;SDS011;31382;50.200;8.674;2023-06-14T14:27:28;1.30;;;0.50;;
45322;SDS011;31382;50.200;8.674;2023-06-14T14:32:29;1.27;;;0.52;;
45322;SDS011;31382;50.200;8.674;2023-06-14T14:37:31;2.20;;;0.57;;
45322;SDS011;31382;50.200;8.674;2023-06-14T14:42:32;2.78;;;0.70;;
45322;SDS011;31382;50.200;8.674;2023-06-14T14:47:34;1.02;;;0.60;;
45322;SDS011;31382;50.200;8.674;2023-06-14T14:52:36;0.70;;;0.50;;
45322;SDS011;31382;50.200;8.674;2023-06-14T14:57:37;0.85;;;0.40;;
45322;SDS011;31382;50.200;8.674;2023-06-14T15:02:39;1.33;;;0.50;;
45322;SDS011;31382;50.200;8.674;2023-06-14T15:07:40;2.03;;;0.35;;
45322;SDS011;31382;50.200;8.674;2023-06-14T15:12:42;1.13;;;0.43;;
45322;SDS011;31382;50.200;8.674;2023-06-14T15:17:43;2.50;;;0.70;;
45322;SDS011;31382;50.200;8.674;2023-06-14T15:22:45;4.60;;;0.57;;
45322;SDS011;31382;50.200;8.674;2023-06-14T15:27:49;0.88;;;0.50;;
45322;SDS011;31382;50.200;8.674;2023-06-14T15:32:50;1.73;;;0.60;;
45322;SDS011;31382;50.200;8.674;2023-06-14T15:37:52;1.23;;;0.50;;
45322;SDS011;31382;50.200;8.674;2023-06-14T15:42:53;1.60;;;0.50;;
45322;SDS011;31382;50.200;8.674;2023-06-14T15:47:55;3.83;;;0.50;;
45322;SDS011;31382;50.200;8.674;2023-06-14T15:52:57;2.50;;;0.52;;
45322;SDS011;31382;50.200;8.674;2023-06-14T15:57:58;1.42;;;0.60;;
45322;SDS011;31382;50.200;8.674;2023-06-14T16:03:00;1.60;;;0.60;;
45322;SDS011;31382;50.200;8.674;2023-06-14T16:08:02;1.15;;;0.57;;
45322;SDS011;31382;50.200;8.674;2023-06-14T16:13:03;2.90;;;0.45;;
45322;SDS011;31382;50.200;8.674;2023-06-14T16:18:04;0.98;;;0.60;;
45322;SDS011;31382;50.200;8.674;2023-06-14T16:23:06;4.22;;;0.70;;
45322;SDS011;31382;50.200;8.674;2023-06-14T16:28:07;0.52;;;0.40;;
45322;SDS011;31382;50.200;8.674;2023-06-14T16:33:09;1.42;;;0.43;;
45322;SDS011;31382;50.200;8.674;2023-06-14T16:38:10;1.83;;;0.80;;
45322;SDS011;31382;50.200;8.674;2023-06-14T16:43:13;2.92;;;0.88;;
45322;SDS011;31382;50.200;8.674;2023-06-14T16:48:16;2.20;;;0.57;;
45322;SDS011;31382;50.200;8.674;2023-06-14T16:53:17;2.90;;;0.80;;
45322;SDS011;31382;50.200;8.674;2023-06-14T16:58:18;1.90;;;0.47;;
45322;SDS011;31382;50.200;8.674;2023-06-14T17:03:20;2.65;;;1.20;;
45322;SDS011;31382;50.200;8.674;2023-06-14T17:08:21;0.50;;;0.50;;
45322;SDS011;31382;50.200;8.674;2023-06-14T17:13:23;0.70;;;0.63;;
45322;SDS011;31382;50.200;8.674;2023-06-14T17:18:25;2.28;;;0.60;;
45322;SDS011;31382;50.200;8.674;2023-06-14T17:23:26;3.47;;;0.73;;
45322;SDS011;31382;50.200;8.674;2023-06-14T17:28:28;6.45;;;1.30;;
45322;SDS011;31382;50.200;8.674;2023-06-14T17:33:29;1.63;;;0.60;;
45322;SDS011;31382;50.200;8.674;2023-06-14T17:38:31;0.88;;;0.70;;
45322;SDS011;31382;50.200;8.674;2023-06-14T17:43:32;1.73;;;0.50;;
45322;SDS011;31382;50.200;8.674;2023-06-14T17:48:34;2.38;;;0.90;;
45322;SDS011;31382;50.200;8.674;2023-06-14T17:53:36;4.10;;;0.60;;
45322;SDS011;31382;50.200;8.674;2023-06-14T17:58:37;1.80;;;0.60;;
45322;SDS011;31382;50.200;8.674;2023-06-14T18:03:39;1.02;;;0.60;;
45322;SDS011;31382;50.200;8.674;2023-06-14T18:08:40;2.20;;;0.70;;
45322;SDS011;31382;50.200;8.674;2023-06-14T18:13:44;1.70;;;0.70;;
45322;SDS011;31382;50.200;8.674;2023-06-14T18:18:46;1.52;;;0.80;;
45322;SDS011;31382;50.200;8.674;2023-06-14T18:23:48;3.95;;;0.60;;
45322;SDS011;31382;50.200;8.674;2023-06-14T18:28:54;2.00;;;1.10;;
45322;SDS011;31382;50.200;8.674;2023-06-14T18:33:56;2.58;;;0.80;;
45322;SDS011;31382;50.200;8.674;2023-06-14T18:38:57;7.30;;;0.82;;
45322;SDS011;31382;50.200;8.674;2023-06-14T18:43:59;1.00;;;0.70;;
45322;SDS011;31382;50.200;8.674;2023-06-14T18:49:00;1.38;;;0.70;;
45322;SDS011;31382;50.200;8.674;2023-06-14T18:54:02;1.15;;;0.80;;
45322;SDS011;31382;50.200;8.674;2023-06-14T18:59:03;1.60;;;0.77;;
45322;SDS011;31382;50.200;8.674;2023-06-14T19:04:05;7.43;;;3.67;;
45322;SDS011;31382;50.200;8.674;2023-06-14T19:09:07;4.25;;;2.55;;
45322;SDS011;31382;50.200;8.674;2023-06-14T19:14:08;2.85;;;0.90;;
45322;SDS011;31382;50.200;8.674;2023-06-14T19:19:10;1.80;;;1.30;;
45322;SDS011;31382;50.200;8.674;2023-06-14T19:24:11;2.75;;;1.10;;
45322;SDS011;31382;50.200;8.674;2023-06-14T19:29:16;1.17;;;0.93;;
45322;SDS011;31382;50.200;8.674;2023-06-14T19:34:18;0.90;;;0.70;;
45322;SDS011;31382;50.200;8.674;2023-06-14T19:39:19;2.97;;;1.20;;
45322;SDS011;31382;50.200;8.674;2023-06-14T19:44:21;2.97;;;0.80;;
45322;SDS011;31382;50.200;8.674;2023-06-14T19:49:23;2.38;;;1.15;;
45322;SDS011;31382;50.200;8.674;2023-06-14T19:54:24;5.35;;;0.80;;
45322;SDS011;31382;50.200;8.674;2023-06-14T19:59:26;1.00;;;0.70;;
45322;SDS011;31382;50.200;8.674;2023-06-14T20:04:27;1.63;;;0.80;;
45322;SDS011;31382;50.200;8.674;2023-06-14T20:09:29;2.15;;;1.15;;
45322;SDS011;31382;50.200;8.674;2023-06-14T20:14:33;4.10;;;0.98;;
45322;SDS011;31382;50.200;8.674;2023-06-14T20:19:34;1.63;;;1.00;;
45322;SDS011;31382;50.200;8.674;2023-06-14T20:24:36;4.78;;;0.95;;
45322;SDS011;31382;50.200;8.674;2023-06-14T20:29:38;4.80;;;1.00;;
45322;SDS011;31382;50.200;8.674;2023-06-14T20:34:40;1.35;;;1.10;;
45322;SDS011;31382;50.200;8.674;2023-06-14T20:39:41;2.28;;;0.98;;
45322;SDS011;31382;50.200;8.674;2023-06-14T20:44:42;0.98;;;0.85;;
45322;SDS011;31382;50.200;8.674;2023-06-14T20:49:44;1.60;;;0.95;;
45322;SDS011;31382;50.200;8.674;2023-06-14T20:54:46;2.97;;;1.10;;
45322;SDS011;31382;50.200;8.674;2023-06-14T20:59:48;2.22;;;0.88;;
45322;SDS011;31382;50.200;8.674;2023-06-14T21:04:50;1.13;;;0.70;;
45322;SDS011;31382;50.200;8.674;2023-06-14T21:09:52;2.65;;;1.33;;
45322;SDS011;31382;50.200;8.674;2023-06-14T21:14:53;0.77;;;0.70;;
45322;SDS011;31382;50.200;8.674;2023-06-14T21:19:55;1.15;;;0.70;;
45322;SDS011;31382;50.200;8.674;2023-06-14T21:24:58;3.00;;;1.13;;
45322;SDS011;31382;50.200;8.674;2023-06-14T21:30:00;1.40;;;0.70;;
45322;SDS011;31382;50.200;8.674;2023-06-14T21:35:04;2.53;;;0.60;;
45322;SDS011;31382;50.200;8.674;2023-06-14T21:40:06;2.78;;;0.73;;
45322;SDS011;31382;50.200;8.674;2023-06-14T21:45:08;0.60;;;0.60;;
45322;SDS011;31382;50.200;8.674;2023-06-14T21:50:11;1.17;;;0.80;;
45322;SDS011;31382;50.200;8.674;2023-06-14T21:55:13;1.58;;;0.60;;
45322;SDS011;31382;50.200;8.674;2023-06-14T22:00:14;1.15;;;0.70;;
45322;SDS011;31382;50.200;8.674;2023-06-14T22:05:17;1.48;;;0.60;;
45322;SDS011;31382;50.200;8.674;2023-06-14T22:10:18;1.88;;;0.80;;
45322;SDS011;31382;50.200;8.674;2023-06-14T22:15:20;1.08;;;0.90;;
45322;SDS011;31382;50.200;8.674;2023-06-14T22:20:22;2.40;;;0.80;;
45322;SDS011;31382;50.200;8.674;2023-06-14T22:25:24;0.80;;;0.80;;
45322;SDS011;31382;50.200;8.674;2023-06-14T22:30:26;1.20;;;0.70;;
45322;SDS011;31382;50.200;8.674;2023-06-14T22:35:28;3.80;;;0.73;;
45322;SDS011;31382;50.200;8.674;2023-06-14T22:40:30;1.27;;;0.82;;
45322;SDS011;31382;50.200;8.674;2023-06-14T22:45:32;4.40;;;0.88;;
45322;SDS011;31382;50.200;8.674;2023-06-14T22:50:33;2.35;;;0.70;;
45322;SDS011;31382;50.200;8.674;2023-06-14T22:55:35;1.88;;;0.82;;
45322;SDS011;31382;50.200;8.674;2023-06-14T23:00:36;1.45;;;0.90;;
45322;SDS011;31382;50.200;8.674;2023-06-14T23:05:40;1.05;;;0.95;;
45322;SDS011;31382;50.200;8.674;2023-06-14T23:10:42;4.57;;;1.42;;
45322;SDS011;31382;50.200;8.674;2023-06-14T23:15:44;2.28;;;1.20;;
45322;SDS011;31382;50.200;8.674;2023-06-14T23:20:45;1.77;;;1.00;;
45322;SDS011;31382;50.200;8.674;2023-06-14T23:25:47;0.98;;;0.80;;
45322;SDS011;31382;50.200;8.674;2023-06-14T23:30:49;1.45;;;1.00;;
45322;SDS011;31382;50.200;8.674;2023-06-14T23:35:52;3.47;;;0.93;;
45322;SDS011;31382;50.200;8.674;2023-06-14T23:40:53;1.67;;;1.13;;
45322;SDS011;31382;50.200;8.674;2023-06-14T23:45:55;3.08;;;1.00;;
45322;SDS011;31382;50.200;8.674;2023-06-14T23:50:58;1.58;;;1.17;;
45322;SDS011;31382;50.200;8.674;2023-06-14T23:56:00;2.50;;;1.17;;
